Time;durP1;ratioP1;P1;durP2;ratioP2;P2;SDS_P1;SDS_P2;PMS_P1;PMS_P2;Temp;Humidity;BMP_temperature;BMP_pressure;BME280_temperature;BME280_humidity;BME280_pressure;Samples;Min_cycle;Max_cycle;Signal;HPM_P1;HPM_P2
2023/01/17 00:02:23;;;;;;;0.80;0.70;;;19.20;42.30;;;;;;4954761;28;20225;-83
2023/01/17 00:10:19;;;;;;;0.90;0.70;;;19.20;42.30;;;;;;4960645;28;20523;-82
2023/01/17 00:12:47;;;;;;;0.67;0.50;;;19.20;42.30;;;;;;4955985;28;20917;-83
2023/01/17 00:15:13;;;;;;;1.83;0.70;;;19.20;42.30;;;;;;4943316;28;20432;-82
2023/01/17 00:17:39;;;;;;;0.80;0.60;;;19.20;42.30;;;;;;4960292;28;20443;-83
2023/01/17 01:35:09;;;;;;;0.70;0.60;;;19.10;42.40;;;;;;4934793;28;21012;-83
2023/01/17 01:37:35;;;;;;;0.70;0.60;;;19.10;42.30;;;;;;4925608;28;20472;-83
2023/01/17 01:40:00;;;;;;;0.70;0.60;;;19.10;42.30;;;;;;4944721;28;20228;-83
2023/01/17 01:42:26;;;;;;;0.80;0.70;;;19.10;42.20;;;;;;4937987;28;20443;-83
2023/01/17 01:44:52;;;;;;;1.43;0.70;;;19.10;42.30;;;;;;4950377;28;20228;-83
2023/01/17 01:47:39;;;;;;;0.70;0.67;;;19.10;42.30;;;;;;4950708;28;20237;-83
2023/01/17 01:50:08;;;;;;;0.60;0.60;;;19.10;42.20;;;;;;4921118;28;20450;-83
2023/01/17 01:52:37;;;;;;;0.60;0.60;;;19.10;42.30;;;;;;4931254;28;20517;-82
2023/01/17 01:55:14;;;;;;;0.60;0.60;;;19.10;42.20;;;;;;4931708;28;20434;-83
2023/01/17 01:57:42;;;;;;;0.70;0.60;;;19.10;42.30;;;;;;4946878;28;20500;-83
2023/01/17 02:00:15;;;;;;;0.90;0.80;;;19.10;42.20;;;;;;4937071;28;20787;-83
2023/01/17 02:02:43;;;;;;;0.70;0.60;;;19.10;42.20;;;;;;4939216;28;20930;-83
2023/01/17 02:05:11;;;;;;;0.70;0.60;;;19.10;42.30;;;;;;4943406;28;20520;-82
2023/01/17 02:07:58;;;;;;;1.00;0.70;;;19.10;42.30;;;;;;4945188;28;20435;-82
2023/01/17 02:10:23;;;;;;;0.67;0.60;;;19.10;42.20;;;;;;4950688;28;20487;-83
2023/01/17 02:12:51;;;;;;;0.80;0.73;;;19.10;42.20;;;;;;4933655;28;20438;-82
2023/01/17 02:15:17;;;;;;;0.70;0.60;;;19.10;42.20;;;;;;4936889;28;20230;-82
2023/01/17 02:18:00;;;;;;;0.60;0.60;;;19.10;42.30;;;;;;4947913;28;20440;-82
2023/01/17 02:20:56;;;;;;;0.63;0.63;;;19.10;42.20;;;;;;4957360;28;20685;-82
2023/01/17 02:23:37;;;;;;;0.60;0.60;;;19.10;42.20;;;;;;4957246;28;20481;-82
2023/01/17 02:26:50;;;;;;;0.70;0.60;;;19.10;42.20;;;;;;4956671;28;20520;-82
2023/01/17 02:29:37;;;;;;;0.70;0.60;;;19.10;42.20;;;;;;4900871;28;20461;-83
2023/01/17 02:32:26;;;;;;;0.60;0.60;;;19.10;42.20;;;;;;4958949;28;20425;-83
2023/01/17 02:35:14;;;;;;;0.73;0.60;;;19.10;42.20;;;;;;4950632;28;20433;-82
2023/01/17 02:37:43;;;;;;;0.80;0.63;;;19.10;42.20;;;;;;4942871;28;20625;-82
2023/01/17 02:40:40;;;;;;;0.77;0.60;;;19.10;42.20;;;;;;4941789;28;20470;-82
2023/01/17 02:43:10;;;;;;;0.60;0.60;;;19.10;42.20;;;;;;4935287;28;20447;-82
2023/01/17 02:45:36;;;;;;;0.80;0.70;;;19.10;42.20;;;;;;4954674;28;20414;-83
2023/01/17 02:48:02;;;;;;;0.70;0.60;;;19.10;42.30;;;;;;4956815;28;20797;-82
2023/01/17 02:50:39;;;;;;;0.60;0.60;;;19.10;42.20;;;;;;4949200;28;20253;-82
2023/01/17 02:53:22;;;;;;;0.67;0.57;;;19.10;42.20;;;;;;4939309;28;21282;-83
2023/01/17 02:56:17;;;;;;;0.70;0.70;;;19.10;42.20;;;;;;4949406;28;20454;-83
2023/01/17 02:59:23;;;;;;;0.63;0.60;;;19.10;42.10;;;;;;4944954;28;20439;-83
2023/01/17 03:02:19;;;;;;;0.80;0.67;;;19.10;42.20;;;;;;4939119;28;20465;-83
2023/01/17 03:05:00;;;;;;;0.73;0.60;;;19.10;42.20;;;;;;4961867;28;20561;-83
2023/01/17 03:07:27;;;;;;;0.60;0.60;;;19.10;42.20;;;;;;4964185;28;20489;-82
2023/01/17 03:09:59;;;;;;;0.70;0.63;;;19.10;42.20;;;;;;4953327;28;20460;-83
2023/01/17 03:12:30;;;;;;;1.10;0.70;;;19.10;42.30;;;;;;4959837;28;20479;-83
2023/01/17 03:14:56;;;;;;;0.97;0.60;;;19.10;42.10;;;;;;4956868;28;20445;-83
2023/01/17 03:17:25;;;;;;;0.70;0.50;;;19.10;42.20;;;;;;4949268;28;21453;-83
2023/01/17 03:19:51;;;;;;;0.70;0.60;;;19.10;42.10;;;;;;4957572;28;20288;-83
2023/01/17 03:22:16;;;;;;;0.70;0.60;;;19.10;42.20;;;;;;4958294;28;20449;-83
2023/01/17 03:24:42;;;;;;;0.60;0.50;;;19.10;42.10;;;;;;4957005;28;20291;-82
2023/01/17 03:27:07;;;;;;;0.70;0.60;;;19.10;42.20;;;;;;4942913;28;20222;-83
2023/01/17 03:29:33;;;;;;;0.80;0.80;;;19.10;42.20;;;;;;4948854;28;20241;-83
2023/01/17 03:31:58;;;;;;;0.80;0.70;;;19.10;42.10;;;;;;4956729;28;20711;-83
2023/01/17 03:34:24;;;;;;;1.27;0.70;;;19.10;42.80;;;;;;4961253;28;20221;-83
2023/01/17 03:36:49;;;;;;;0.77;0.70;;;19.10;42.20;;;;;;4962388;28;20213;-83
2023/01/17 03:39:15;;;;;;;0.60;0.60;;;19.10;42.10;;;;;;4962602;28;20315;-83
2023/01/17 03:41:40;;;;;;;0.60;0.60;;;19.10;42.20;;;;;;4946803;28;20235;-83
2023/01/17 03:44:06;;;;;;;0.70;0.60;;;19.10;42.80;;;;;;4952446;28;20304;-83
2023/01/17 03:46:31;;;;;;;0.70;0.60;;;19.10;42.10;;;;;;4950647;28;20289;-83
2023/01/17 03:48:57;;;;;;;0.60;0.60;;;19.10;42.10;;;;;;4956488;28;20232;-82
2023/01/17 03:51:23;;;;;;;0.70;0.67;;;19.10;42.10;;;;;;4949066;28;20254;-83
2023/01/17 03:53:49;;;;;;;0.70;0.70;;;19.10;42.10;;;;;;4958084;28;20264;-83
2023/01/17 03:56:15;;;;;;;0.80;0.70;;;19.10;42.10;;;;;;4958564;28;20228;-83
2023/01/17 03:58:41;;;;;;;0.60;0.50;;;19.10;42.10;;;;;;4960268;28;20509;-82
2023/01/17 04:01:07;;;;;;;0.60;0.60;;;19.10;42.00;;;;;;4958747;28;20260;-83
2023/01/17 04:03:32;;;;;;;0.60;0.50;;;19.10;42.10;;;;;;4962963;28;21005;-83
2023/01/17 04:05:58;;;;;;;0.70;0.70;;;19.10;42.10;;;;;;4958172;28;20224;-83
2023/01/17 04:08:24;;;;;;;0.70;0.63;;;19.10;42.00;;;;;;4962212;28;20221;-82
2023/01/17 04:10:49;;;;;;;0.67;0.60;;;19.10;42.10;;;;;;4960799;28;20229;-82
2023/01/17 04:13:15;;;;;;;0.70;0.60;;;19.10;42.00;;;;;;4959443;28;20229;-83
2023/01/17 04:15:47;;;;;;;0.70;0.60;;;19.10;42.00;;;;;;4961802;28;20265;-82
2023/01/17 04:18:12;;;;;;;0.70;0.50;;;19.10;42.00;;;;;;4959465;28;21345;-82
2023/01/17 04:20:39;;;;;;;0.70;0.70;;;19.10;42.10;;;;;;4955694;28;20421;-82
2023/01/17 04:23:05;;;;;;;0.80;0.67;;;19.10;42.00;;;;;;4944001;28;20243;-83
2023/01/17 04:25:31;;;;;;;0.80;0.60;;;19.10;42.10;;;;;;4962982;28;20428;-83
2023/01/17 04:27:58;;;;;;;0.60;0.60;;;19.10;42.00;;;;;;4942033;28;20430;-83
2023/01/17 04:30:24;;;;;;;0.80;0.63;;;19.10;42.00;;;;;;4942987;28;20225;-83
2023/01/17 04:32:50;;;;;;;0.77;0.57;;;19.10;42.00;;;;;;4952349;28;20430;-83
2023/01/17 04:35:15;;;;;;;0.70;0.60;;;19.10;42.00;;;;;;4960300;28;20437;-83
2023/01/17 04:37:41;;;;;;;1.90;0.63;;;19.10;42.00;;;;;;4963187;28;20691;-82
2023/01/17 04:40:07;;;;;;;0.80;0.70;;;19.10;42.00;;;;;;4959528;28;20308;-84
2023/01/17 04:42:33;;;;;;;1.47;0.60;;;19.10;42.00;;;;;;4960890;28;20307;-83
2023/01/17 04:44:58;;;;;;;0.60;0.50;;;19.10;42.00;;;;;;4954439;28;20446;-83
2023/01/17 04:47:24;;;;;;;0.90;0.67;;;19.10;42.00;;;;;;4960682;28;20253;-83
2023/01/17 04:49:50;;;;;;;0.70;0.70;;;19.10;42.00;;;;;;4961099;28;20248;-83
2023/01/17 04:52:17;;;;;;;0.70;0.60;;;19.10;41.90;;;;;;4957931;28;20306;-82
2023/01/17 04:54:43;;;;;;;0.80;0.60;;;19.10;41.90;;;;;;4943146;28;20862;-82
2023/01/17 04:57:09;;;;;;;1.03;0.60;;;19.10;41.90;;;;;;4959871;28;20520;-82
2023/01/17 04:59:34;;;;;;;0.70;0.70;;;19.10;41.80;;;;;;4960270;28;20225;-83
2023/01/17 05:02:00;;;;;;;0.60;0.50;;;19.20;41.90;;;;;;4939184;28;20224;-83
2023/01/17 05:04:25;;;;;;;0.60;0.60;;;19.20;41.90;;;;;;4954558;28;20255;-82
2023/01/17 05:06:51;;;;;;;1.73;0.70;;;19.20;41.90;;;;;;4962555;28;20223;-83
2023/01/17 05:09:16;;;;;;;0.70;0.60;;;19.20;41.90;;;;;;4953724;28;20241;-83
2023/01/17 05:11:42;;;;;;;0.80;0.80;;;19.20;41.90;;;;;;4958544;28;20229;-83
2023/01/17 05:14:09;;;;;;;0.60;0.60;;;19.20;41.80;;;;;;4937459;28;20244;-83
2023/01/17 05:16:35;;;;;;;0.80;0.70;;;19.30;41.90;;;;;;4952964;28;20244;-83
2023/01/17 05:19:01;;;;;;;0.80;0.67;;;19.30;41.90;;;;;;4960026;28;20421;-82
2023/01/17 05:21:27;;;;;;;0.70;0.60;;;19.30;41.90;;;;;;4953602;28;20642;-83
2023/01/17 05:23:52;;;;;;;0.70;0.60;;;19.30;41.80;;;;;;4948377;28;20230;-83
2023/01/17 05:26:18;;;;;;;0.60;0.60;;;19.30;41.80;;;;;;4926341;28;21545;-83
2023/01/17 05:28:44;;;;;;;0.70;0.50;;;19.30;41.80;;;;;;4949711;28;21635;-83
2023/01/17 05:31:09;;;;;;;0.80;0.63;;;19.40;41.80;;;;;;4948666;28;20228;-83
2023/01/17 05:33:35;;;;;;;0.70;0.63;;;19.40;42.60;;;;;;4954517;28;20229;-83
2023/01/17 05:36:02;;;;;;;0.80;0.63;;;19.40;41.80;;;;;;4938093;28;20720;-83
2023/01/17 05:38:28;;;;;;;1.30;0.80;;;19.40;41.90;;;;;;4932997;28;20229;-82
2023/01/17 05:40:54;;;;;;;0.70;0.60;;;19.40;41.80;;;;;;4943354;28;20436;-83
2023/01/17 05:43:19;;;;;;;0.73;0.63;;;19.40;41.90;;;;;;4939885;28;20466;-83
2023/01/17 05:45:48;;;;;;;0.70;0.70;;;19.40;41.80;;;;;;4946138;28;20364;-83
2023/01/17 05:48:14;;;;;;;0.80;0.70;;;19.40;41.80;;;;;;4929358;28;20229;-83
2023/01/17 05:50:39;;;;;;;0.70;0.60;;;19.40;41.80;;;;;;4940884;28;21107;-82
2023/01/17 05:53:10;;;;;;;0.70;0.60;;;19.40;41.80;;;;;;4952960;28;20267;-82
2023/01/17 05:55:36;;;;;;;0.87;0.70;;;19.30;41.70;;;;;;4948021;28;20887;-82
2023/01/17 05:58:03;;;;;;;0.80;0.70;;;19.40;41.80;;;;;;4947606;28;20485;-83
2023/01/17 06:00:28;;;;;;;0.70;0.70;;;19.40;42.60;;;;;;4948240;28;20458;-82
2023/01/17 06:02:56;;;;;;;0.80;0.80;;;19.40;41.80;;;;;;4920533;28;20463;-82
2023/01/17 06:05:23;;;;;;;0.70;0.67;;;19.40;41.80;;;;;;4952610;28;20267;-83
2023/01/17 06:07:49;;;;;;;2.00;0.97;;;19.40;41.80;;;;;;4957753;28;20548;-82
2023/01/17 06:10:16;;;;;;;0.77;0.60;;;19.40;41.80;;;;;;4933378;28;22586;-83
2023/01/17 06:12:43;;;;;;;0.80;0.60;;;19.40;41.80;;;;;;4940994;28;20484;-84
2023/01/17 06:15:09;;;;;;;0.77;0.77;;;19.40;41.80;;;;;;4945976;28;20505;-84
2023/01/17 06:17:35;;;;;;;1.43;0.70;;;19.40;41.80;;;;;;4933254;28;20438;-84
2023/01/17 06:20:02;;;;;;;0.60;0.60;;;19.40;41.80;;;;;;4948424;28;20785;-83
2023/01/17 06:22:28;;;;;;;0.80;0.67;;;19.40;41.70;;;;;;4938854;28;20444;-83
2023/01/17 06:24:54;;;;;;;0.70;0.70;;;19.40;41.70;;;;;;4926425;28;20434;-82
2023/01/17 06:27:20;;;;;;;0.70;0.63;;;19.40;41.80;;;;;;4947930;28;20509;-83
2023/01/17 06:29:45;;;;;;;0.80;0.77;;;19.40;41.70;;;;;;4949039;28;20263;-83
2023/01/17 06:32:12;;;;;;;1.10;0.80;;;19.40;41.70;;;;;;4951653;28;20574;-83
2023/01/17 06:34:38;;;;;;;1.10;0.90;;;19.40;41.70;;;;;;4942602;28;20221;-83
2023/01/17 06:37:04;;;;;;;0.80;0.70;;;19.40;41.80;;;;;;4937343;28;20420;-83
2023/01/17 06:39:30;;;;;;;1.50;0.90;;;19.40;41.80;;;;;;4948566;28;20996;-83
2023/01/17 06:41:58;;;;;;;0.70;0.70;;;19.40;41.80;;;;;;4955291;28;20236;-84
2023/01/17 06:44:25;;;;;;;1.00;1.00;;;19.40;41.70;;;;;;4944753;28;20221;-83
2023/01/17 06:46:51;;;;;;;1.10;0.73;;;19.40;42.60;;;;;;4943441;28;20817;-83
2023/01/17 06:49:17;;;;;;;0.70;0.70;;;19.40;41.70;;;;;;4951038;28;20540;-83
2023/01/17 06:51:42;;;;;;;1.00;0.80;;;19.40;41.70;;;;;;4953150;28;20480;-85
2023/01/17 06:54:08;;;;;;;1.20;0.80;;;19.40;41.70;;;;;;4955715;28;20229;-83
2023/01/17 06:56:34;;;;;;;1.00;0.90;;;19.40;41.70;;;;;;4950882;28;20225;-84
2023/01/17 06:59:00;;;;;;;1.00;0.90;;;19.40;41.70;;;;;;4957206;28;20444;-83
2023/01/17 07:01:26;;;;;;;1.60;0.80;;;19.40;41.70;;;;;;4958184;28;20309;-83
2023/01/17 07:03:51;;;;;;;1.00;0.90;;;19.40;41.70;;;;;;4960179;28;20284;-84
2023/01/17 07:06:17;;;;;;;1.13;0.80;;;19.40;41.70;;;;;;4959892;28;20220;-83
2023/01/17 07:08:43;;;;;;;2.93;0.90;;;19.40;41.80;;;;;;4939596;28;20723;-84
2023/01/17 07:11:09;;;;;;;1.00;0.90;;;19.40;41.70;;;;;;4958200;28;20315;-84
2023/01/17 07:13:39;;;;;;;1.17;1.07;;;19.30;41.90;;;;;;4947609;28;20217;-85
2023/01/17 07:16:06;;;;;;;1.80;0.90;;;19.30;41.60;;;;;;4950013;28;21159;-83
2023/01/17 07:18:32;;;;;;;0.90;0.90;;;19.30;41.60;;;;;;4955915;28;20505;-83
2023/01/17 07:20:57;;;;;;;1.03;0.93;;;19.30;41.70;;;;;;4960466;28;20441;-84
2023/01/17 07:23:23;;;;;;;1.17;0.80;;;19.30;41.60;;;;;;4959534;28;20433;-83
2023/01/17 07:25:59;;;;;;;1.00;0.90;;;19.30;41.70;;;;;;4958906;28;20288;-83
2023/01/17 07:28:26;;;;;;;0.80;0.80;;;19.30;41.60;;;;;;4943389;28;20232;-83
2023/01/17 07:30:53;;;;;;;1.77;0.80;;;19.30;41.70;;;;;;4957867;28;20435;-83
2023/01/17 07:33:18;;;;;;;0.90;0.80;;;19.30;41.70;;;;;;4959607;28;20463;-85
2023/01/17 07:35:44;;;;;;;2.00;0.90;;;19.30;41.70;;;;;;4958240;28;20425;-83
2023/01/17 07:38:14;;;;;;;1.30;1.10;;;19.30;41.70;;;;;;4960384;28;20216;-84
2023/01/17 07:40:40;;;;;;;1.43;0.90;;;19.30;41.70;;;;;;4955265;28;20228;-83
2023/01/17 07:43:12;;;;;;;1.00;0.90;;;19.30;41.70;;;;;;4959230;28;20434;-85
2023/01/17 07:45:49;;;;;;;1.03;0.93;;;19.30;41.70;;;;;;4930579;28;20947;-85
2023/01/17 07:48:16;;;;;;;1.30;1.20;;;19.30;41.70;;;;;;4945766;28;20430;-84
2023/01/17 07:50:42;;;;;;;1.17;1.07;;;19.30;42.40;;;;;;4948050;28;20482;-84
2023/01/17 07:53:08;;;;;;;0.93;0.90;;;19.30;41.70;;;;;;4960970;28;20421;-83
2023/01/17 07:55:34;;;;;;;1.40;0.93;;;19.30;41.70;;;;;;4956826;28;20221;-83
2023/01/17 07:57:59;;;;;;;1.23;0.90;;;19.30;41.70;;;;;;4956560;28;20437;-83
2023/01/17 08:00:26;;;;;;;1.13;0.80;;;19.30;41.70;;;;;;4958003;28;20233;-83
2023/01/17 08:02:59;;;;;;;1.00;0.83;;;19.30;41.70;;;;;;4944072;28;20625;-83
2023/01/17 08:05:26;;;;;;;0.87;0.87;;;19.30;41.70;;;;;;4957870;28;20952;-83
2023/01/17 08:07:51;;;;;;;0.90;0.87;;;19.30;41.70;;;;;;4958935;28;20496;-84
2023/01/17 08:10:17;;;;;;;1.60;0.83;;;19.30;42.50;;;;;;4957427;28;20433;-83
2023/01/17 08:12:47;;;;;;;0.90;0.90;;;19.30;41.60;;;;;;4958214;28;20221;-84
2023/01/17 08:15:17;;;;;;;0.80;0.80;;;19.30;41.60;;;;;;4958978;28;20456;-84
2023/01/17 08:17:47;;;;;;;1.67;0.90;;;19.30;41.70;;;;;;4956423;28;20561;-84
2023/01/17 08:20:14;;;;;;;0.80;0.80;;;19.30;41.70;;;;;;4959536;28;20420;-84
2023/01/17 08:22:40;;;;;;;0.80;0.80;;;19.30;41.60;;;;;;4943501;28;21012;-84
2023/01/17 08:25:05;;;;;;;1.50;1.13;;;19.30;41.60;;;;;;4959407;28;20457;-85
2023/01/17 08:27:31;;;;;;;1.20;1.10;;;19.30;41.70;;;;;;4959624;28;20684;-84
2023/01/17 08:29:56;;;;;;;0.90;0.80;;;19.30;41.60;;;;;;4957241;28;20273;-84
2023/01/17 08:32:22;;;;;;;0.90;0.80;;;19.30;41.60;;;;;;4957036;28;20325;-85
2023/01/17 08:34:47;;;;;;;1.00;0.90;;;19.30;41.70;;;;;;4953811;28;20228;-84
2023/01/17 08:37:13;;;;;;;1.00;0.87;;;19.30;41.60;;;;;;4958049;28;20216;-84
2023/01/17 08:39:38;;;;;;;1.53;1.43;;;19.30;41.60;;;;;;4959324;28;20232;-85
2023/01/17 08:42:04;;;;;;;1.07;0.97;;;19.30;41.60;;;;;;4960437;28;20244;-83
2023/01/17 08:44:30;;;;;;;1.13;1.00;;;19.30;41.60;;;;;;4955372;28;20835;-84
2023/01/17 08:46:55;;;;;;;1.00;0.90;;;19.30;41.60;;;;;;4958425;28;20307;-84
2023/01/17 08:49:21;;;;;;;0.80;0.80;;;19.30;41.70;;;;;;4955657;28;20275;-84
2023/01/17 08:51:47;;;;;;;0.80;0.80;;;19.30;41.60;;;;;;4957267;28;20232;-85
2023/01/17 08:54:14;;;;;;;0.90;0.90;;;19.30;41.60;;;;;;4955253;28;20228;-84
2023/01/17 08:56:41;;;;;;;1.17;1.07;;;19.30;41.50;;;;;;4961732;28;20221;-84
2023/01/17 08:59:11;;;;;;;1.20;1.10;;;19.30;41.60;;;;;;4945514;28;20445;-84
2023/01/17 09:01:40;;;;;;;1.00;0.90;;;19.30;41.50;;;;;;4947542;28;20450;-84
2023/01/17 09:04:10;;;;;;;1.20;0.87;;;19.30;41.50;;;;;;4937580;28;21102;-84
2023/01/17 09:06:38;;;;;;;1.00;0.90;;;19.30;41.60;;;;;;4921509;28;20418;-84
2023/01/17 09:09:04;;;;;;;1.10;1.00;;;19.30;41.50;;;;;;4940382;28;20453;-84
2023/01/17 09:11:30;;;;;;;1.00;0.90;;;19.30;41.50;;;;;;4958326;28;20564;-84
2023/01/17 09:13:56;;;;;;;1.30;1.20;;;19.30;41.50;;;;;;4945794;28;20509;-85
2023/01/17 09:16:21;;;;;;;5.07;0.90;;;19.30;41.50;;;;;;4954172;28;20869;-84
2023/01/17 09:18:47;;;;;;;1.10;1.00;;;19.30;41.30;;;;;;4952845;28;20596;-84
2023/01/17 09:21:16;;;;;;;1.10;1.00;;;19.30;41.40;;;;;;4949448;28;20253;-83
2023/01/17 09:23:43;;;;;;;1.10;1.00;;;19.30;41.30;;;;;;4957816;28;20232;-85
2023/01/17 09:26:24;;;;;;;1.03;0.93;;;19.30;41.30;;;;;;4939544;28;20957;-83
2023/01/17 09:28:50;;;;;;;3.60;1.80;;;19.30;41.30;;;;;;4958073;28;20470;-85
2023/01/17 09:31:16;;;;;;;1.00;0.90;;;19.30;41.30;;;;;;4939838;28;20421;-84
2023/01/17 09:33:42;;;;;;;1.10;1.00;;;19.30;41.30;;;;;;4953341;28;20445;-84
2023/01/17 09:36:11;;;;;;;1.10;1.00;;;19.30;41.30;;;;;;4960185;28;20425;-83
2023/01/17 09:38:37;;;;;;;0.70;0.70;;;19.30;41.30;;;;;;4948974;28;20233;-84
2023/01/17 09:41:16;;;;;;;1.00;0.90;;;19.30;41.30;;;;;;4956861;28;20518;-84
2023/01/17 09:43:50;;;;;;;0.80;0.80;;;19.30;41.30;;;;;;4934560;28;20791;-85
2023/01/17 09:46:21;;;;;;;1.60;1.20;;;19.30;41.20;;;;;;4938450;28;20460;-84
2023/01/17 09:48:50;;;;;;;1.20;1.10;;;19.30;41.30;;;;;;4936541;28;20443;-84
2023/01/17 09:51:21;;;;;;;0.80;0.80;;;19.40;41.40;;;;;;4931406;28;20931;-84
2023/01/17 09:53:49;;;;;;;1.00;0.90;;;19.40;41.40;;;;;;4956516;28;20471;-84
2023/01/17 09:56:45;;;;;;;1.10;0.90;;;19.30;41.20;;;;;;4958203;28;20433;-84
2023/01/17 09:59:45;;;;;;;2.00;0.90;;;19.40;41.30;;;;;;4938443;28;20993;-84
2023/01/17 10:02:23;;;;;;;1.00;0.90;;;19.40;41.30;;;;;;4953204;28;20435;-85
2023/01/17 10:05:11;;;;;;;0.90;0.90;;;19.40;41.30;;;;;;4938117;28;20976;-84
2023/01/17 10:08:05;;;;;;;1.20;0.90;;;19.40;41.30;;;;;;4935779;28;20465;-84
2023/01/17 10:10:54;;;;;;;1.10;1.00;;;19.40;41.30;;;;;;4935885;28;20471;-84
2023/01/17 10:13:45;;;;;;;1.10;1.00;;;19.30;41.20;;;;;;4950308;28;20473;-84
2023/01/17 10:16:35;;;;;;;1.30;1.00;;;19.40;41.30;;;;;;4958464;28;20450;-84
2023/01/17 10:19:14;;;;;;;1.00;0.90;;;19.40;41.30;;;;;;4962064;28;20462;-85
2023/01/17 10:21:54;;;;;;;0.90;0.90;;;19.40;41.30;;;;;;4960229;28;20454;-85
2023/01/17 10:24:39;;;;;;;0.90;0.90;;;19.40;41.30;;;;;;4956739;28;20437;-84
2023/01/17 10:27:18;;;;;;;0.83;0.77;;;19.40;41.30;;;;;;4960875;28;20520;-84
2023/01/17 10:29:46;;;;;;;0.90;0.90;;;19.40;41.20;;;;;;4961842;28;20429;-84
2023/01/17 10:32:13;;;;;;;0.80;0.80;;;19.40;41.20;;;;;;4961083;28;20960;-84
2023/01/17 10:34:47;;;;;;;0.87;0.83;;;19.40;41.20;;;;;;4961916;28;20464;-83
2023/01/17 10:37:28;;;;;;;2.20;0.90;;;19.40;41.40;;;;;;4957371;28;20917;-84
2023/01/17 10:40:01;;;;;;;1.43;0.97;;;19.40;41.20;;;;;;4957390;28;20460;-84
2023/01/17 10:43:13;;;;;;;1.10;0.90;;;19.40;41.20;;;;;;4960015;28;20470;-84
2023/01/17 10:45:42;;;;;;;0.80;0.70;;;19.40;41.20;;;;;;4927293;28;20433;-84
2023/01/17 10:48:18;;;;;;;1.20;1.10;;;19.40;41.20;;;;;;4960316;28;20456;-85
2023/01/17 10:51:10;;;;;;;1.23;1.13;;;19.40;41.20;;;;;;4959048;28;20448;-84
2023/01/17 10:54:00;;;;;;;0.90;0.80;;;19.40;41.20;;;;;;4961998;28;20977;-84
2023/01/17 10:56:27;;;;;;;1.60;0.90;;;19.40;41.30;;;;;;4936948;28;20486;-84
2023/01/17 10:59:32;;;;;;;1.10;1.00;;;19.40;42.00;;;;;;4939005;28;20461;-84
2023/01/17 11:02:06;;;;;;;0.90;0.70;;;19.40;41.20;;;;;;4936612;28;20587;-84
2023/01/17 11:04:35;;;;;;;1.23;0.90;;;19.40;41.20;;;;;;4948480;28;20463;-84
2023/01/17 11:07:19;;;;;;;1.30;1.20;;;19.40;41.20;;;;;;4960647;28;20483;-84
2023/01/17 11:09:48;;;;;;;1.00;0.90;;;19.40;41.10;;;;;;4951743;28;20967;-85
2023/01/17 11:12:27;;;;;;;0.73;0.70;;;19.40;41.20;;;;;;4961162;28;20451;-84
2023/01/17 11:15:01;;;;;;;1.30;0.80;;;19.40;41.10;;;;;;4955652;28;20822;-83
2023/01/17 11:17:28;;;;;;;0.93;0.80;;;19.40;41.20;;;;;;4959074;28;20487;-84
2023/01/17 11:20:06;;;;;;;1.00;0.90;;;19.40;41.10;;;;;;4960010;28;20489;-84
2023/01/17 11:22:32;;;;;;;1.00;0.90;;;19.40;41.10;;;;;;4959600;28;20455;-84
2023/01/17 11:24:59;;;;;;;0.97;0.93;;;19.40;41.20;;;;;;4957373;28;20459;-84
2023/01/17 11:27:25;;;;;;;0.80;0.80;;;19.40;42.00;;;;;;4943835;28;20565;-84
2023/01/17 11:30:20;;;;;;;1.03;0.93;;;19.40;41.20;;;;;;4959556;28;20472;-83
2023/01/17 11:32:57;;;;;;;0.70;0.70;;;19.40;41.10;;;;;;4949171;28;20937;-85
2023/01/17 11:35:35;;;;;;;1.17;0.80;;;19.40;41.10;;;;;;4940256;28;20472;-84
2023/01/17 11:38:01;;;;;;;1.00;0.90;;;19.40;41.10;;;;;;4957431;28;20433;-83
2023/01/17 11:40:37;;;;;;;0.70;0.70;;;19.40;41.20;;;;;;4958423;28;20666;-84
2023/01/17 11:43:14;;;;;;;0.77;0.77;;;19.40;41.20;;;;;;4957483;28;20231;-84
2023/01/17 11:45:40;;;;;;;2.40;0.87;;;19.50;41.20;;;;;;4959126;28;20565;-84
2023/01/17 11:48:11;;;;;;;0.80;0.80;;;19.40;41.20;;;;;;4944519;28;20593;-83
2023/01/17 11:50:50;;;;;;;0.80;0.80;;;19.40;41.20;;;;;;4959677;28;20452;-84
2023/01/17 11:53:37;;;;;;;0.90;0.90;;;19.40;41.20;;;;;;4959691;28;20421;-84
2023/01/17 11:56:10;;;;;;;1.17;0.97;;;19.50;41.20;;;;;;4959588;28;20455;-85
2023/01/17 11:58:39;;;;;;;0.80;0.80;;;19.40;41.10;;;;;;4956749;28;20483;-85
2023/01/17 12:01:27;;;;;;;0.90;0.80;;;19.40;41.20;;;;;;4958235;28;20441;-84
2023/01/17 12:04:26;;;;;;;1.00;0.90;;;19.50;41.10;;;;;;4956786;28;20445;-85
2023/01/17 12:07:28;;;;;;;1.10;1.00;;;19.50;41.20;;;;;;4957732;28;20445;-84
2023/01/17 12:10:27;;;;;;;1.10;1.00;;;19.50;41.10;;;;;;4954787;28;20540;-83
2023/01/17 12:14:00;;;;;;;0.87;0.80;;;19.50;41.10;;;;;;4948323;28;20446;-85
2023/01/17 12:16:37;;;;;;;0.77;0.77;;;19.50;41.20;;;;;;4856026;29;20600;-83
2023/01/17 12:19:37;;;;;;;0.97;0.87;;;19.40;41.10;;;;;;4856345;29;20474;-84
2023/01/17 12:22:34;;;;;;;0.87;0.80;;;19.50;41.20;;;;;;4929234;28;20455;-84
2023/01/17 12:25:19;;;;;;;0.90;0.80;;;19.50;42.00;;;;;;4937599;28;20472;-84
2023/01/17 12:27:50;;;;;;;1.10;1.00;;;19.50;41.20;;;;;;4939816;28;20422;-84
2023/01/17 12:30:29;;;;;;;0.80;0.80;;;19.40;41.20;;;;;;4940175;28;20559;-84
2023/01/17 12:33:14;;;;;;;0.77;0.77;;;19.50;41.20;;;;;;4939134;28;20453;-84
2023/01/17 12:36:00;;;;;;;0.80;0.80;;;19.50;41.20;;;;;;4946961;28;20435;-84
2023/01/17 12:38:38;;;;;;;1.10;0.90;;;19.50;41.30;;;;;;4946710;28;20442;-84
2023/01/17 12:41:11;;;;;;;0.83;0.80;;;19.40;41.20;;;;;;4936981;28;20458;-84
2023/01/17 12:43:39;;;;;;;0.90;0.90;;;19.50;41.30;;;;;;4929534;28;20835;-84
2023/01/17 12:46:22;;;;;;;0.80;0.80;;;19.40;41.20;;;;;;4936517;28;20459;-83
2023/01/17 12:48:53;;;;;;;0.83;0.83;;;19.50;41.20;;;;;;4956218;28;20451;-84
2023/01/17 12:51:29;;;;;;;0.83;0.70;;;19.40;41.20;;;;;;4957998;28;20977;-85
2023/01/17 12:54:11;;;;;;;0.73;0.73;;;19.40;41.20;;;;;;4939021;28;20820;-83
2023/01/17 12:56:51;;;;;;;0.80;0.80;;;19.50;41.30;;;;;;4949607;28;20501;-84
2023/01/17 12:59:25;;;;;;;0.83;0.80;;;19.50;41.20;;;;;;4957849;28;20463;-84
2023/01/17 13:01:58;;;;;;;0.90;0.80;;;19.40;41.20;;;;;;4953983;28;20470;-84
2023/01/17 13:04:35;;;;;;;1.43;0.80;;;19.50;41.30;;;;;;4936344;28;20478;-84
2023/01/17 13:07:09;;;;;;;1.00;0.90;;;19.40;41.20;;;;;;4936300;28;20527;-83
2023/01/17 13:09:41;;;;;;;0.97;0.97;;;19.40;41.20;;;;;;4939550;28;20457;-84
2023/01/17 13:12:15;;;;;;;0.97;0.97;;;19.40;41.20;;;;;;4940231;28;20534;-84
2023/01/17 13:14:41;;;;;;;0.77;0.73;;;19.40;41.30;;;;;;4939456;28;20422;-84
2023/01/17 13:17:30;;;;;;;0.77;0.77;;;19.40;41.30;;;;;;4953721;28;21282;-84
2023/01/17 13:20:25;;;;;;;0.70;0.70;;;19.40;41.20;;;;;;4955494;28;20255;-83
2023/01/17 13:22:52;;;;;;;0.90;0.90;;;19.40;41.30;;;;;;4953536;28;20442;-84
2023/01/17 13:25:42;;;;;;;0.80;0.80;;;19.40;41.30;;;;;;4958281;28;20467;-84
2023/01/17 13:28:26;;;;;;;0.73;0.73;;;19.40;41.30;;;;;;4958436;28;21035;-85
2023/01/17 13:31:07;;;;;;;0.90;0.80;;;19.40;41.30;;;;;;4921311;28;20450;-83
2023/01/17 13:33:54;;;;;;;1.10;1.00;;;19.40;41.30;;;;;;4950932;28;20973;-84
2023/01/17 13:36:44;;;;;;;0.97;0.97;;;19.40;41.30;;;;;;4936640;28;20452;-84
2023/01/17 13:40:04;;;;;;;0.80;0.80;;;19.40;41.30;;;;;;4935154;28;20861;-84
2023/01/17 13:42:58;;;;;;;0.97;0.83;;;19.40;41.30;;;;;;4918413;28;20537;-84
2023/01/17 13:45:33;;;;;;;0.83;0.83;;;19.40;41.30;;;;;;4946642;28;20445;-84
2023/01/17 13:48:11;;;;;;;0.90;0.80;;;19.40;41.30;;;;;;4952874;28;20466;-84
2023/01/17 13:50:40;;;;;;;0.80;0.80;;;19.40;41.30;;;;;;4956089;28;20461;-83
2023/01/17 13:53:38;;;;;;;0.83;0.80;;;19.40;41.40;;;;;;4956051;28;20468;-84
2023/01/17 13:56:23;;;;;;;1.00;0.93;;;19.40;41.30;;;;;;4937643;28;20464;-85
2023/01/17 13:58:50;;;;;;;0.80;0.80;;;19.40;41.30;;;;;;4944498;28;20472;-83
2023/01/17 14:01:21;;;;;;;0.80;0.73;;;19.40;41.40;;;;;;4949985;28;20839;-84
2023/01/17 14:03:52;;;;;;;0.70;0.70;;;19.40;41.40;;;;;;4943984;28;21055;-84
2023/01/17 14:06:39;;;;;;;0.80;0.73;;;19.40;41.30;;;;;;4956245;28;20502;-85
2023/01/17 14:09:14;;;;;;;0.90;0.90;;;19.40;41.30;;;;;;4957619;28;20522;-84
2023/01/17 14:12:05;;;;;;;1.57;1.47;;;19.40;41.30;;;;;;4947468;28;20479;-84
2023/01/17 14:14:40;;;;;;;0.73;0.73;;;19.40;41.40;;;;;;4952707;28;20433;-84
2023/01/17 14:17:14;;;;;;;1.10;0.80;;;19.40;41.30;;;;;;4944536;28;20806;-83
2023/01/17 14:19:44;;;;;;;0.80;0.80;;;19.40;41.40;;;;;;4938355;28;20458;-84
2023/01/17 14:22:19;;;;;;;0.70;0.67;;;19.40;41.40;;;;;;4946593;28;20896;-90
2023/01/17 14:24:59;;;;;;;0.70;0.70;;;19.40;41.40;;;;;;4951963;28;20764;-93
2023/01/17 14:27:28;;;;;;;0.90;0.90;;;19.40;41.30;;;;;;4961865;28;20489;-91
2023/01/17 14:29:59;;;;;;;0.93;0.83;;;19.40;41.30;;;;;;4924865;28;20487;-88
2023/01/17 14:32:29;;;;;;;0.80;0.80;;;19.40;41.40;;;;;;4942933;28;20433;-86
2023/01/17 14:34:56;;;;;;;0.70;0.70;;;19.40;41.40;;;;;;4946593;28;20485;-85
2023/01/17 14:37:49;;;;;;;0.80;0.80;;;19.40;41.40;;;;;;4946938;28;20456;-85